sensor_id;sensor_type;location;lat;lon;timestamp;P1;durP1;ratioP1;P2;durP2;ratioP2
55312;SDS011;46892;45.668;11.756;2023-12-28T00:02:13;78.90;;;58.83;;
55312;SDS011;46892;45.668;11.756;2023-12-28T00:04:39;84.80;;;58.27;;
55312;SDS011;46892;45.668;11.756;2023-12-28T00:07:05;82.80;;;60.03;;
55312;SDS011;46892;45.668;11.756;2023-12-28T00:09:31;79.23;;;58.37;;
55312;SDS011;46892;45.668;11.756;2023-12-28T00:11:57;77.70;;;57.13;;
55312;SDS011;46892;45.668;11.756;2023-12-28T00:14:23;88.53;;;61.93;;
55312;SDS011;46892;45.668;11.756;2023-12-28T00:16:49;83.37;;;60.73;;
55312;SDS011;46892;45.668;11.756;2023-12-28T00:19:15;81.27;;;58.77;;
55312;SDS011;46892;45.668;11.756;2023-12-28T00:21:41;75.67;;;56.50;;
55312;SDS011;46892;45.668;11.756;2023-12-28T00:24:06;80.60;;;58.03;;
55312;SDS011;46892;45.668;11.756;2023-12-28T00:26:32;78.27;;;55.63;;
55312;SDS011;46892;45.668;11.756;2023-12-28T00:28:58;94.57;;;65.97;;
55312;SDS011;46892;45.668;11.756;2023-12-28T00:31:24;94.20;;;66.27;;
55312;SDS011;46892;45.668;11.756;2023-12-28T00:33:49;100.80;;;69.47;;
55312;SDS011;46892;45.668;11.756;2023-12-28T00:36:15;109.67;;;76.20;;
55312;SDS011;46892;45.668;11.756;2023-12-28T00:38:41;119.77;;;73.70;;
55312;SDS011;46892;45.668;11.756;2023-12-28T00:41:07;102.30;;;69.70;;
55312;SDS011;46892;45.668;11.756;2023-12-28T00:43:33;90.97;;;62.83;;
55312;SDS011;46892;45.668;11.756;2023-12-28T00:45:59;86.10;;;61.30;;
55312;SDS011;46892;45.668;11.756;2023-12-28T00:48:25;88.97;;;61.70;;
55312;SDS011;46892;45.668;11.756;2023-12-28T00:50:50;91.13;;;61.87;;
55312;SDS011;46892;45.668;11.756;2023-12-28T00:53:16;89.83;;;63.00;;
55312;SDS011;46892;45.668;11.756;2023-12-28T00:55:42;90.13;;;60.07;;
55312;SDS011;46892;45.668;11.756;2023-12-28T00:58:07;89.40;;;59.53;;
55312;SDS011;46892;45.668;11.756;2023-12-28T01:00:33;70.60;;;48.00;;
55312;SDS011;46892;45.668;11.756;2023-12-28T01:02:59;80.73;;;53.13;;
55312;SDS011;46892;45.668;11.756;2023-12-28T01:05:24;79.70;;;54.80;;
55312;SDS011;46892;45.668;11.756;2023-12-28T01:07:53;73.80;;;51.97;;
55312;SDS011;46892;45.668;11.756;2023-12-28T01:10:19;75.63;;;55.30;;
55312;SDS011;46892;45.668;11.756;2023-12-28T01:12:45;82.03;;;56.37;;
55312;SDS011;46892;45.668;11.756;2023-12-28T01:15:10;84.60;;;57.17;;
55312;SDS011;46892;45.668;11.756;2023-12-28T01:17:36;71.20;;;52.20;;
55312;SDS011;46892;45.668;11.756;2023-12-28T01:20:03;64.90;;;46.27;;
55312;SDS011;46892;45.668;11.756;2023-12-28T01:22:29;60.93;;;43.77;;
55312;SDS011;46892;45.668;11.756;2023-12-28T01:24:55;76.70;;;52.33;;
55312;SDS011;46892;45.668;11.756;2023-12-28T01:27:20;65.67;;;45.87;;
55312;SDS011;46892;45.668;11.756;2023-12-28T01:29:46;44.13;;;30.37;;
55312;SDS011;46892;45.668;11.756;2023-12-28T01:32:12;33.10;;;23.67;;
55312;SDS011;46892;45.668;11.756;2023-12-28T01:34:39;32.50;;;23.50;;
55312;SDS011;46892;45.668;11.756;2023-12-28T01:37:06;39.53;;;28.77;;
55312;SDS011;46892;45.668;11.756;2023-12-28T01:39:33;41.43;;;30.20;;
55312;SDS011;46892;45.668;11.756;2023-12-28T01:41:58;37.03;;;26.93;;
55312;SDS011;46892;45.668;11.756;2023-12-28T01:44:24;38.37;;;28.77;;
55312;SDS011;46892;45.668;11.756;2023-12-28T01:46:50;33.67;;;24.63;;
55312;SDS011;46892;45.668;11.756;2023-12-28T01:49:15;31.53;;;23.70;;
55312;SDS011;46892;45.668;11.756;2023-12-28T01:51:41;29.43;;;23.00;;
55312;SDS011;46892;45.668;11.756;2023-12-28T01:54:09;31.90;;;24.23;;
55312;SDS011;46892;45.668;11.756;2023-12-28T01:56:35;34.33;;;23.33;;
55312;SDS011;46892;45.668;11.756;2023-12-28T01:59:02;32.83;;;23.57;;
55312;SDS011;46892;45.668;11.756;2023-12-28T02:01:28;31.30;;;23.70;;
55312;SDS011;46892;45.668;11.756;2023-12-28T02:03:53;50.53;;;34.93;;
55312;SDS011;46892;45.668;11.756;2023-12-28T02:06:21;47.77;;;36.97;;
55312;SDS011;46892;45.668;11.756;2023-12-28T02:08:48;56.33;;;39.00;;
55312;SDS011;46892;45.668;11.756;2023-12-28T02:11:14;53.93;;;38.27;;
55312;SDS011;46892;45.668;11.756;2023-12-28T02:13:40;58.33;;;43.50;;
55312;SDS011;46892;45.668;11.756;2023-12-28T02:18:56;59.40;;;43.25;;
55312;SDS011;46892;45.668;11.756;2023-12-28T02:21:25;61.87;;;44.27;;
55312;SDS011;46892;45.668;11.756;2023-12-28T02:23:52;62.60;;;43.43;;
55312;SDS011;46892;45.668;11.756;2023-12-28T02:26:18;55.47;;;41.73;;
55312;SDS011;46892;45.668;11.756;2023-12-28T02:28:44;56.37;;;42.27;;
55312;SDS011;46892;45.668;11.756;2023-12-28T02:31:13;55.17;;;41.40;;
55312;SDS011;46892;45.668;11.756;2023-12-28T02:34:03;55.00;;;40.73;;
55312;SDS011;46892;45.668;11.756;2023-12-28T02:36:33;56.40;;;39.97;;
55312;SDS011;46892;45.668;11.756;2023-12-28T02:39:01;51.70;;;39.07;;
55312;SDS011;46892;45.668;11.756;2023-12-28T02:41:28;50.47;;;37.33;;
55312;SDS011;46892;45.668;11.756;2023-12-28T02:43:56;54.40;;;40.57;;
55312;SDS011;46892;45.668;11.756;2023-12-28T02:46:22;54.13;;;38.27;;
55312;SDS011;46892;45.668;11.756;2023-12-28T02:48:48;60.30;;;42.47;;
55312;SDS011;46892;45.668;11.756;2023-12-28T02:51:15;60.47;;;45.03;;
55312;SDS011;46892;45.668;11.756;2023-12-28T02:53:41;62.93;;;46.20;;
55312;SDS011;46892;45.668;11.756;2023-12-28T02:56:07;62.67;;;44.93;;
55312;SDS011;46892;45.668;11.756;2023-12-28T02:58:33;60.20;;;43.47;;
55312;SDS011;46892;45.668;11.756;2023-12-28T03:00:59;57.70;;;42.57;;
55312;SDS011;46892;45.668;11.756;2023-12-28T03:03:24;64.17;;;45.50;;
55312;SDS011;46892;45.668;11.756;2023-12-28T03:05:50;56.27;;;42.00;;
55312;SDS011;46892;45.668;11.756;2023-12-28T03:08:16;60.53;;;44.20;;
55312;SDS011;46892;45.668;11.756;2023-12-28T03:10:42;55.47;;;40.77;;
55312;SDS011;46892;45.668;11.756;2023-12-28T03:13:07;52.57;;;38.43;;
55312;SDS011;46892;45.668;11.756;2023-12-28T03:15:33;47.77;;;36.73;;
55312;SDS011;46892;45.668;11.756;2023-12-28T03:17:59;53.10;;;37.63;;
55312;SDS011;46892;45.668;11.756;2023-12-28T03:20:25;49.90;;;36.53;;
55312;SDS011;46892;45.668;11.756;2023-12-28T03:22:50;47.10;;;35.57;;
55312;SDS011;46892;45.668;11.756;2023-12-28T03:25:16;54.17;;;37.03;;
55312;SDS011;46892;45.668;11.756;2023-12-28T03:27:42;51.07;;;38.07;;
55312;SDS011;46892;45.668;11.756;2023-12-28T03:30:08;45.27;;;33.43;;
55312;SDS011;46892;45.668;11.756;2023-12-28T03:32:34;40.97;;;31.37;;
55312;SDS011;46892;45.668;11.756;2023-12-28T03:35:00;41.57;;;31.67;;
55312;SDS011;46892;45.668;11.756;2023-12-28T03:37:26;43.73;;;33.30;;
55312;SDS011;46892;45.668;11.756;2023-12-28T03:39:52;45.13;;;33.57;;
55312;SDS011;46892;45.668;11.756;2023-12-28T03:42:17;44.20;;;32.93;;
55312;SDS011;46892;45.668;11.756;2023-12-28T03:44:43;42.43;;;32.03;;
55312;SDS011;46892;45.668;11.756;2023-12-28T03:47:09;53.40;;;37.57;;
55312;SDS011;46892;45.668;11.756;2023-12-28T03:49:35;50.80;;;38.00;;
55312;SDS011;46892;45.668;11.756;2023-12-28T03:52:00;45.07;;;35.23;;
55312;SDS011;46892;45.668;11.756;2023-12-28T03:54:26;44.17;;;34.13;;
55312;SDS011;46892;45.668;11.756;2023-12-28T03:56:52;46.97;;;33.17;;
55312;SDS011;46892;45.668;11.756;2023-12-28T03:59:19;44.17;;;31.40;;
55312;SDS011;46892;45.668;11.756;2023-12-28T04:01:45;38.90;;;30.63;;
55312;SDS011;46892;45.668;11.756;2023-12-28T04:04:10;39.93;;;29.60;;
55312;SDS011;46892;45.668;11.756;2023-12-28T04:06:37;43.17;;;31.77;;
55312;SDS011;46892;45.668;11.756;2023-12-28T04:09:03;42.10;;;32.67;;
55312;SDS011;46892;45.668;11.756;2023-12-28T04:11:29;42.13;;;33.13;;
55312;SDS011;46892;45.668;11.756;2023-12-28T04:13:54;39.80;;;30.27;;
55312;SDS011;46892;45.668;11.756;2023-12-28T04:16:20;43.53;;;30.97;;
55312;SDS011;46892;45.668;11.756;2023-12-28T04:18:46;38.70;;;30.00;;
55312;SDS011;46892;45.668;11.756;2023-12-28T04:21:12;37.47;;;29.13;;
55312;SDS011;46892;45.668;11.756;2023-12-28T04:23:39;38.67;;;28.50;;
55312;SDS011;46892;45.668;11.756;2023-12-28T04:26:05;37.33;;;27.83;;
55312;SDS011;46892;45.668;11.756;2023-12-28T04:28:31;34.10;;;25.77;;
55312;SDS011;46892;45.668;11.756;2023-12-28T04:31:01;31.30;;;23.73;;
55312;SDS011;46892;45.668;11.756;2023-12-28T04:33:28;33.73;;;25.67;;
55312;SDS011;46892;45.668;11.756;2023-12-28T04:35:54;32.20;;;24.67;;
55312;SDS011;46892;45.668;11.756;2023-12-28T04:38:20;32.07;;;24.83;;
55312;SDS011;46892;45.668;11.756;2023-12-28T04:40:45;30.60;;;22.57;;
55312;SDS011;46892;45.668;11.756;2023-12-28T04:43:11;28.83;;;20.97;;
55312;SDS011;46892;45.668;11.756;2023-12-28T04:45:37;30.57;;;24.13;;
55312;SDS011;46892;45.668;11.756;2023-12-28T04:48:03;27.60;;;21.63;;
55312;SDS011;46892;45.668;11.756;2023-12-28T04:50:29;29.20;;;22.10;;
55312;SDS011;46892;45.668;11.756;2023-12-28T04:52:55;29.30;;;20.63;;
55312;SDS011;46892;45.668;11.756;2023-12-28T04:55:21;29.53;;;20.10;;
55312;SDS011;46892;45.668;11.756;2023-12-28T04:57:46;26.77;;;20.57;;
55312;SDS011;46892;45.668;11.756;2023-12-28T05:00:12;24.53;;;20.17;;
55312;SDS011;46892;45.668;11.756;2023-12-28T05:02:38;25.83;;;19.60;;
55312;SDS011;46892;45.668;11.756;2023-12-28T05:05:04;29.83;;;19.93;;
55312;SDS011;46892;45.668;11.756;2023-12-28T05:07:30;25.27;;;19.33;;
55312;SDS011;46892;45.668;11.756;2023-12-28T05:09:56;26.67;;;18.90;;
55312;SDS011;46892;45.668;11.756;2023-12-28T05:12:21;27.00;;;20.20;;
55312;SDS011;46892;45.668;11.756;2023-12-28T05:14:47;25.30;;;19.73;;
55312;SDS011;46892;45.668;11.756;2023-12-28T05:17:13;24.70;;;19.40;;
55312;SDS011;46892;45.668;11.756;2023-12-28T05:19:38;25.80;;;18.53;;
55312;SDS011;46892;45.668;11.756;2023-12-28T05:22:04;28.37;;;19.83;;
55312;SDS011;46892;45.668;11.756;2023-12-28T05:24:32;26.47;;;20.03;;
55312;SDS011;46892;45.668;11.756;2023-12-28T05:26:58;25.10;;;18.63;;
55312;SDS011;46892;45.668;11.756;2023-12-28T05:29:24;24.50;;;17.87;;
55312;SDS011;46892;45.668;11.756;2023-12-28T05:31:49;21.83;;;16.90;;
55312;SDS011;46892;45.668;11.756;2023-12-28T05:34:15;24.57;;;18.63;;
55312;SDS011;46892;45.668;11.756;2023-12-28T05:36:41;22.87;;;17.83;;
55312;SDS011;46892;45.668;11.756;2023-12-28T05:39:08;23.67;;;17.77;;
55312;SDS011;46892;45.668;11.756;2023-12-28T05:41:38;23.73;;;16.88;;
55312;SDS011;46892;45.668;11.756;2023-12-28T05:44:05;21.30;;;16.40;;
55312;SDS011;46892;45.668;11.756;2023-12-28T05:46:31;24.27;;;16.60;;
55312;SDS011;46892;45.668;11.756;2023-12-28T05:48:57;21.50;;;16.10;;
55312;SDS011;46892;45.668;11.756;2023-12-28T05:51:22;19.63;;;14.77;;
55312;SDS011;46892;45.668;11.756;2023-12-28T05:53:48;17.53;;;13.43;;
55312;SDS011;46892;45.668;11.756;2023-12-28T05:56:14;20.53;;;14.30;;
55312;SDS011;46892;45.668;11.756;2023-12-28T05:58:40;19.70;;;14.43;;
55312;SDS011;46892;45.668;11.756;2023-12-28T06:01:06;19.63;;;14.87;;
55312;SDS011;46892;45.668;11.756;2023-12-28T06:03:32;20.03;;;14.97;;
55312;SDS011;46892;45.668;11.756;2023-12-28T06:05:58;19.33;;;14.40;;
55312;SDS011;46892;45.668;11.756;2023-12-28T06:08:23;20.60;;;14.20;;
55312;SDS011;46892;45.668;11.756;2023-12-28T06:10:49;17.90;;;13.57;;
55312;SDS011;46892;45.668;11.756;2023-12-28T06:13:15;19.73;;;13.70;;
55312;SDS011;46892;45.668;11.756;2023-12-28T06:15:41;19.03;;;13.33;;
55312;SDS011;46892;45.668;11.756;2023-12-28T06:18:07;18.60;;;14.03;;
55312;SDS011;46892;45.668;11.756;2023-12-28T06:20:32;17.33;;;13.10;;
55312;SDS011;46892;45.668;11.756;2023-12-28T06:22:58;19.37;;;12.37;;
55312;SDS011;46892;45.668;11.756;2023-12-28T06:25:24;16.93;;;12.67;;
55312;SDS011;46892;45.668;11.756;2023-12-28T06:27:50;20.83;;;15.73;;
55312;SDS011;46892;45.668;11.756;2023-12-28T06:30:16;17.90;;;13.90;;
55312;SDS011;46892;45.668;11.756;2023-12-28T06:32:41;80.10;;;46.67;;
55312;SDS011;46892;45.668;11.756;2023-12-28T06:35:07;60.47;;;36.97;;
55312;SDS011;46892;45.668;11.756;2023-12-28T06:37:33;45.30;;;31.07;;
55312;SDS011;46892;45.668;11.756;2023-12-28T06:39:59;30.17;;;21.70;;
55312;SDS011;46892;45.668;11.756;2023-12-28T06:42:25;28.70;;;19.90;;
55312;SDS011;46892;45.668;11.756;2023-12-28T06:44:50;23.53;;;17.10;;
55312;SDS011;46892;45.668;11.756;2023-12-28T06:47:16;26.60;;;14.37;;
55312;SDS011;46892;45.668;11.756;2023-12-28T06:49:42;20.27;;;12.70;;
55312;SDS011;46892;45.668;11.756;2023-12-28T06:52:08;18.40;;;11.87;;
55312;SDS011;46892;45.668;11.756;2023-12-28T06:54:36;17.73;;;12.23;;
55312;SDS011;46892;45.668;11.756;2023-12-28T06:57:02;19.53;;;13.13;;
55312;SDS011;46892;45.668;11.756;2023-12-28T06:59:28;22.63;;;13.00;;
55312;SDS011;46892;45.668;11.756;2023-12-28T07:01:54;18.33;;;13.40;;
55312;SDS011;46892;45.668;11.756;2023-12-28T07:04:20;19.33;;;13.00;;
55312;SDS011;46892;45.668;11.756;2023-12-28T07:06:46;16.80;;;12.43;;
55312;SDS011;46892;45.668;11.756;2023-12-28T07:09:12;21.43;;;13.93;;
55312;SDS011;46892;45.668;11.756;2023-12-28T07:11:38;26.97;;;14.67;;
55312;SDS011;46892;45.668;11.756;2023-12-28T07:14:03;20.73;;;13.83;;
55312;SDS011;46892;45.668;11.756;2023-12-28T07:16:29;20.13;;;12.17;;
55312;SDS011;46892;45.668;11.756;2023-12-28T07:18:55;17.40;;;11.93;;
55312;SDS011;46892;45.668;11.756;2023-12-28T07:21:21;15.83;;;11.83;;
55312;SDS011;46892;45.668;11.756;2023-12-28T07:23:47;15.87;;;11.97;;
55312;SDS011;46892;45.668;11.756;2023-12-28T07:26:14;15.97;;;11.43;;
55312;SDS011;46892;45.668;11.756;2023-12-28T07:28:40;16.37;;;11.73;;
55312;SDS011;46892;45.668;11.756;2023-12-28T07:31:10;17.87;;;11.93;;
55312;SDS011;46892;45.668;11.756;2023-12-28T07:33:35;17.23;;;11.83;;
55312;SDS011;46892;45.668;11.756;2023-12-28T07:36:01;14.97;;;11.30;;
55312;SDS011;46892;45.668;11.756;2023-12-28T07:38:28;17.27;;;11.87;;
55312;SDS011;46892;45.668;11.756;2023-12-28T07:40:54;19.23;;;11.97;;
55312;SDS011;46892;45.668;11.756;2023-12-28T07:43:20;20.10;;;12.90;;
55312;SDS011;46892;45.668;11.756;2023-12-28T07:45:45;17.67;;;13.20;;
55312;SDS011;46892;45.668;11.756;2023-12-28T07:48:11;15.33;;;11.87;;
55312;SDS011;46892;45.668;11.756;2023-12-28T07:50:38;17.43;;;12.87;;
55312;SDS011;46892;45.668;11.756;2023-12-28T07:53:04;17.57;;;12.37;;
55312;SDS011;46892;45.668;11.756;2023-12-28T07:55:30;16.73;;;12.33;;
55312;SDS011;46892;45.668;11.756;2023-12-28T07:57:56;16.40;;;11.97;;
55312;SDS011;46892;45.668;11.756;2023-12-28T08:00:21;15.50;;;11.27;;
55312;SDS011;46892;45.668;11.756;2023-12-28T08:02:47;13.80;;;10.03;;
55312;SDS011;46892;45.668;11.756;2023-12-28T08:05:14;14.30;;;10.13;;
55312;SDS011;46892;45.668;11.756;2023-12-28T08:07:39;15.97;;;10.87;;
55312;SDS011;46892;45.668;11.756;2023-12-28T08:10:05;15.47;;;11.07;;
55312;SDS011;46892;45.668;11.756;2023-12-28T08:12:32;17.43;;;11.60;;
55312;SDS011;46892;45.668;11.756;2023-12-28T08:14:58;20.73;;;11.43;;
55312;SDS011;46892;45.668;11.756;2023-12-28T08:17:24;16.07;;;11.93;;
55312;SDS011;46892;45.668;11.756;2023-12-28T08:19:50;16.17;;;11.87;;
55312;SDS011;46892;45.668;11.756;2023-12-28T08:22:16;18.63;;;13.30;;
55312;SDS011;46892;45.668;11.756;2023-12-28T08:24:42;18.37;;;12.90;;
55312;SDS011;46892;45.668;11.756;2023-12-28T08:27:09;22.23;;;14.70;;
55312;SDS011;46892;45.668;11.756;2023-12-28T08:29:35;21.33;;;14.10;;
55312;SDS011;46892;45.668;11.756;2023-12-28T08:32:02;20.83;;;14.00;;
55312;SDS011;46892;45.668;11.756;2023-12-28T08:34:28;22.93;;;16.17;;
55312;SDS011;46892;45.668;11.756;2023-12-28T08:36:54;24.83;;;17.23;;
55312;SDS011;46892;45.668;11.756;2023-12-28T08:39:20;24.27;;;17.40;;
55312;SDS011;46892;45.668;11.756;2023-12-28T08:41:46;22.10;;;16.83;;
55312;SDS011;46892;45.668;11.756;2023-12-28T08:44:12;26.23;;;17.07;;
55312;SDS011;46892;45.668;11.756;2023-12-28T08:46:38;22.47;;;16.50;;
55312;SDS011;46892;45.668;11.756;2023-12-28T08:49:03;25.47;;;16.33;;
55312;SDS011;46892;45.668;11.756;2023-12-28T08:51:29;23.63;;;15.37;;
55312;SDS011;46892;45.668;11.756;2023-12-28T08:53:55;23.43;;;16.33;;
55312;SDS011;46892;45.668;11.756;2023-12-28T08:56:21;21.47;;;14.77;;
55312;SDS011;46892;45.668;11.756;2023-12-28T08:58:47;25.27;;;15.87;;
55312;SDS011;46892;45.668;11.756;2023-12-28T09:01:15;23.57;;;17.70;;
55312;SDS011;46892;45.668;11.756;2023-12-28T09:03:42;25.87;;;16.97;;
55312;SDS011;46892;45.668;11.756;2023-12-28T09:06:08;25.87;;;18.17;;
55312;SDS011;46892;45.668;11.756;2023-12-28T09:08:34;25.13;;;17.20;;
55312;SDS011;46892;45.668;11.756;2023-12-28T09:11:00;27.77;;;18.60;;
55312;SDS011;46892;45.668;11.756;2023-12-28T09:13:26;22.90;;;17.50;;
55312;SDS011;46892;45.668;11.756;2023-12-28T09:15:52;23.37;;;17.73;;
55312;SDS011;46892;45.668;11.756;2023-12-28T09:18:17;24.73;;;17.53;;
55312;SDS011;46892;45.668;11.756;2023-12-28T09:20:44;26.37;;;17.23;;
55312;SDS011;46892;45.668;11.756;2023-12-28T09:23:09;24.73;;;17.57;;
55312;SDS011;46892;45.668;11.756;2023-12-28T09:25:36;24.23;;;18.03;;
55312;SDS011;46892;45.668;11.756;2023-12-28T09:28:04;23.57;;;17.70;;
55312;SDS011;46892;45.668;11.756;2023-12-28T09:30:30;25.47;;;18.50;;
55312;SDS011;46892;45.668;11.756;2023-12-28T09:32:56;23.00;;;18.03;;
55312;SDS011;46892;45.668;11.756;2023-12-28T09:35:22;27.60;;;19.73;;
55312;SDS011;46892;45.668;11.756;2023-12-28T09:37:47;29.63;;;22.17;;
55312;SDS011;46892;45.668;11.756;2023-12-28T09:40:14;27.53;;;21.53;;
55312;SDS011;46892;45.668;11.756;2023-12-28T09:42:43;27.30;;;19.33;;
55312;SDS011;46892;45.668;11.756;2023-12-28T09:45:13;25.23;;;18.27;;
55312;SDS011;46892;45.668;11.756;2023-12-28T09:47:40;21.83;;;16.80;;
55312;SDS011;46892;45.668;11.756;2023-12-28T09:50:08;22.80;;;15.93;;
55312;SDS011;46892;45.668;11.756;2023-12-28T09:52:34;24.47;;;16.40;;
55312;SDS011;46892;45.668;11.756;2023-12-28T09:55:00;23.63;;;16.40;;
55312;SDS011;46892;45.668;11.756;2023-12-28T09:57:25;22.10;;;16.73;;
55312;SDS011;46892;45.668;11.756;2023-12-28T09:59:51;21.77;;;15.47;;
55312;SDS011;46892;45.668;11.756;2023-12-28T10:02:17;20.90;;;15.57;;
55312;SDS011;46892;45.668;11.756;2023-12-28T10:04:44;22.63;;;15.13;;
55312;SDS011;46892;45.668;11.756;2023-12-28T10:07:09;21.63;;;15.57;;
55312;SDS011;46892;45.668;11.756;2023-12-28T10:09:35;24.70;;;16.60;;
55312;SDS011;46892;45.668;11.756;2023-12-28T10:12:01;22.73;;;14.73;;
55312;SDS011;46892;45.668;11.756;2023-12-28T10:14:28;22.23;;;15.93;;
55312;SDS011;46892;45.668;11.756;2023-12-28T10:16:54;22.63;;;14.97;;
55312;SDS011;46892;45.668;11.756;2023-12-28T10:19:23;22.63;;;15.17;;
55312;SDS011;46892;45.668;11.756;2023-12-28T10:21:49;19.93;;;14.83;;
55312;SDS011;46892;45.668;11.756;2023-12-28T10:24:14;24.03;;;17.43;;
55312;SDS011;46892;45.668;11.756;2023-12-28T10:26:40;24.80;;;18.10;;
55312;SDS011;46892;45.668;11.756;2023-12-28T10:29:06;30.27;;;21.17;;
55312;SDS011;46892;45.668;11.756;2023-12-28T10:31:32;28.57;;;21.00;;
55312;SDS011;46892;45.668;11.756;2023-12-28T10:34:00;29.07;;;21.17;;
55312;SDS011;46892;45.668;11.756;2023-12-28T10:36:29;28.63;;;20.80;;
55312;SDS011;46892;45.668;11.756;2023-12-28T10:38:55;25.70;;;20.03;;
55312;SDS011;46892;45.668;11.756;2023-12-28T10:41:22;27.47;;;20.83;;
55312;SDS011;46892;45.668;11.756;2023-12-28T10:44:01;27.00;;;21.40;;
55312;SDS011;46892;45.668;11.756;2023-12-28T10:46:30;32.40;;;24.23;;
55312;SDS011;46892;45.668;11.756;2023-12-28T10:49:09;28.33;;;22.83;;
55312;SDS011;46892;45.668;11.756;2023-12-28T10:51:42;30.47;;;22.83;;
55312;SDS011;46892;45.668;11.756;2023-12-28T10:54:14;27.03;;;20.50;;
55312;SDS011;46892;45.668;11.756;2023-12-28T11:02:21;28.00;;;20.70;;
55312;SDS011;46892;45.668;11.756;2023-12-28T11:04:53;25.83;;;19.03;;
55312;SDS011;46892;45.668;11.756;2023-12-28T11:07:20;24.80;;;18.03;;
55312;SDS011;46892;45.668;11.756;2023-12-28T11:09:46;22.50;;;17.47;;
55312;SDS011;46892;45.668;11.756;2023-12-28T11:12:13;21.80;;;15.63;;
55312;SDS011;46892;45.668;11.756;2023-12-28T11:14:43;21.23;;;16.00;;
55312;SDS011;46892;45.668;11.756;2023-12-28T11:17:09;23.03;;;16.73;;
55312;SDS011;46892;45.668;11.756;2023-12-28T11:19:36;21.33;;;15.83;;
55312;SDS011;46892;45.668;11.756;2023-12-28T11:22:03;24.80;;;17.77;;
55312;SDS011;46892;45.668;11.756;2023-12-28T11:24:29;23.53;;;17.80;;
55312;SDS011;46892;45.668;11.756;2023-12-28T11:26:56;27.47;;;18.70;;
55312;SDS011;46892;45.668;11.756;2023-12-28T11:29:22;27.23;;;19.60;;
55312;SDS011;46892;45.668;11.756;2023-12-28T11:31:51;26.97;;;19.50;;
55312;SDS011;46892;45.668;11.756;2023-12-28T11:36:51;29.00;;;20.13;;
55312;SDS011;46892;45.668;11.756;2023-12-28T11:39:29;30.70;;;20.80;;
55312;SDS011;46892;45.668;11.756;2023-12-28T11:42:07;27.48;;;21.33;;
55312;SDS011;46892;45.668;11.756;2023-12-28T11:44:37;30.08;;;21.48;;
55312;SDS011;46892;45.668;11.756;2023-12-28T11:47:14;28.38;;;21.27;;
55312;SDS011;46892;45.668;11.756;2023-12-28T11:49:40;31.87;;;21.27;;
55312;SDS011;46892;45.668;11.756;2023-12-28T11:52:07;26.47;;;21.20;;
55312;SDS011;46892;45.668;11.756;2023-12-28T11:54:34;28.33;;;20.33;;
55312;SDS011;46892;45.668;11.756;2023-12-28T11:57:00;30.00;;;20.87;;
55312;SDS011;46892;45.668;11.756;2023-12-28T11:59:26;27.80;;;20.60;;
55312;SDS011;46892;45.668;11.756;2023-12-28T12:01:52;28.00;;;20.50;;
55312;SDS011;46892;45.668;11.756;2023-12-28T12:04:19;27.60;;;20.60;;
55312;SDS011;46892;45.668;11.756;2023-12-28T12:06:47;27.23;;;20.87;;
55312;SDS011;46892;45.668;11.756;2023-12-28T12:09:15;25.30;;;19.90;;
55312;SDS011;46892;45.668;11.756;2023-12-28T12:11:41;23.77;;;19.07;;
55312;SDS011;46892;45.668;11.756;2023-12-28T12:14:10;25.53;;;18.27;;
55312;SDS011;46892;45.668;11.756;2023-12-28T12:16:37;22.87;;;17.53;;
55312;SDS011;46892;45.668;11.756;2023-12-28T12:19:04;26.40;;;19.00;;
55312;SDS011;46892;45.668;11.756;2023-12-28T12:21:32;27.17;;;19.53;;
55312;SDS011;46892;45.668;11.756;2023-12-28T12:24:01;25.53;;;18.77;;
55312;SDS011;46892;45.668;11.756;2023-12-28T12:26:28;24.50;;;18.83;;
55312;SDS011;46892;45.668;11.756;2023-12-28T12:28:55;26.43;;;19.37;;
55312;SDS011;46892;45.668;11.756;2023-12-28T12:31:21;23.37;;;17.97;;
55312;SDS011;46892;45.668;11.756;2023-12-28T12:33:47;24.63;;;18.93;;
55312;SDS011;46892;45.668;11.756;2023-12-28T12:36:13;24.50;;;19.23;;
55312;SDS011;46892;45.668;11.756;2023-12-28T12:38:40;25.27;;;18.03;;
55312;SDS011;46892;45.668;11.756;2023-12-28T12:41:07;26.87;;;19.93;;
55312;SDS011;46892;45.668;11.756;2023-12-28T12:43:35;26.00;;;18.93;;
55312;SDS011;46892;45.668;11.756;2023-12-28T12:46:01;24.77;;;18.03;;
55312;SDS011;46892;45.668;11.756;2023-12-28T12:48:29;24.13;;;17.90;;
55312;SDS011;46892;45.668;11.756;2023-12-28T12:50:55;22.47;;;17.10;;
55312;SDS011;46892;45.668;11.756;2023-12-28T12:53:21;23.53;;;17.43;;
55312;SDS011;46892;45.668;11.756;2023-12-28T12:55:47;24.33;;;18.47;;
55312;SDS011;46892;45.668;11.756;2023-12-28T12:58:13;24.83;;;18.47;;
55312;SDS011;46892;45.668;11.756;2023-12-28T13:00:42;24.00;;;17.77;;
55312;SDS011;46892;45.668;11.756;2023-12-28T13:03:09;22.87;;;17.63;;
55312;SDS011;46892;45.668;11.756;2023-12-28T13:05:35;25.03;;;19.10;;
55312;SDS011;46892;45.668;11.756;2023-12-28T13:08:02;25.90;;;18.27;;
55312;SDS011;46892;45.668;11.756;2023-12-28T13:10:29;22.67;;;18.13;;
55312;SDS011;46892;45.668;11.756;2023-12-28T13:12:55;23.73;;;18.57;;
55312;SDS011;46892;45.668;11.756;2023-12-28T13:15:21;25.00;;;18.83;;
55312;SDS011;46892;45.668;11.756;2023-12-28T13:17:47;26.43;;;19.60;;
55312;SDS011;46892;45.668;11.756;2023-12-28T13:20:13;26.80;;;18.27;;
55312;SDS011;46892;45.668;11.756;2023-12-28T13:22:39;22.77;;;17.63;;
55312;SDS011;46892;45.668;11.756;2023-12-28T13:25:05;24.47;;;18.53;;
55312;SDS011;46892;45.668;11.756;2023-12-28T13:27:31;26.87;;;19.30;;
55312;SDS011;46892;45.668;11.756;2023-12-28T13:29:57;24.30;;;18.67;;
55312;SDS011;46892;45.668;11.756;2023-12-28T13:32:23;24.40;;;18.57;;
55312;SDS011;46892;45.668;11.756;2023-12-28T13:34:49;26.30;;;19.27;;
55312;SDS011;46892;45.668;11.756;2023-12-28T13:37:18;26.70;;;19.73;;
55312;SDS011;46892;45.668;11.756;2023-12-28T13:39:43;24.50;;;18.57;;
55312;SDS011;46892;45.668;11.756;2023-12-28T13:42:09;23.47;;;17.73;;
55312;SDS011;46892;45.668;11.756;2023-12-28T13:44:35;26.30;;;19.07;;
55312;SDS011;46892;45.668;11.756;2023-12-28T13:47:01;23.53;;;18.43;;
55312;SDS011;46892;45.668;11.756;2023-12-28T13:49:28;24.17;;;18.03;;
55312;SDS011;46892;45.668;11.756;2023-12-28T13:51:54;26.60;;;19.43;;
55312;SDS011;46892;45.668;11.756;2023-12-28T13:54:20;25.40;;;19.07;;
55312;SDS011;46892;45.668;11.756;2023-12-28T13:56:46;26.87;;;19.43;;
55312;SDS011;46892;45.668;11.756;2023-12-28T13:59:13;26.93;;;19.40;;
55312;SDS011;46892;45.668;11.756;2023-12-28T14:01:39;31.03;;;19.60;;
55312;SDS011;46892;45.668;11.756;2023-12-28T14:04:05;26.43;;;19.67;;
55312;SDS011;46892;45.668;11.756;2023-12-28T14:06:32;26.67;;;19.90;;
55312;SDS011;46892;45.668;11.756;2023-12-28T14:08:57;28.03;;;20.47;;
55312;SDS011;46892;45.668;11.756;2023-12-28T14:11:24;23.70;;;18.83;;
55312;SDS011;46892;45.668;11.756;2023-12-28T14:13:50;29.13;;;21.13;;
55312;SDS011;46892;45.668;11.756;2023-12-28T14:16:15;29.87;;;21.57;;